CheckWX is a tool to help pilots better visualize weather data.  It is not intended as a substitute for an official pre-flight weather briefing.

20:31:59 UTC

LCLK TAF
Larnaca International Airport
Larnarca, Cyprus
TAF LCLK 072330Z 0800/0824 31007KT 9999 SCT040 BECMG 0809/0813 21013KT PROB30 TEMPO 0809/0816 5000 SHRA FEW020CB BECMG 0815/0819 32006KT

Apr-8@
00:00 UTC

Apr-8 @ 00:00 UTC

Apr-8@
09:00 UTC

Apr-8 @ 09:00 UTC

TAF LCLK 072330Z 0800/0824 31007KT 9999 SCT040

Expired

Wind
  • 310° at 7 KTS
Cloud Levels
  • Scattered at 4,000' AGL

Apr-8@
09:00 UTC

Apr-8 @ 09:00 UTC

Apr-8@
15:00 UTC

Apr-8 @ 15:00 UTC

BECMG 0809/0813 21013KT

Expired

Wind
  • 210° at 13 KTS
Cloud Levels
  • Scattered at 4,000' AGL

Apr-8@
09:00 UTC

Apr-8 @ 09:00 UTC

Apr-8@
16:00 UTC

Apr-8 @ 16:00 UTC

PROB30 TEMPO 0809/0816 5000 SHRA FEW020CB

Expired

Conditions
Showers, Rain
Cloud Levels
  • Few at 2,000' AGL

Apr-8@
15:00 UTC

Apr-8 @ 15:00 UTC

Apr-9@
00:00 UTC

Apr-9 @ 00:00 UTC

BECMG 0815/0819 32006KT

Becoming

Becoming Conditions expected by Wed, Apr 8, 2020 @ 19:00 UTC

Wind
  • 320° at 6 KTS
Cloud Levels
  • Scattered at 4,000' AGL